Daniel, Wyoming
Current Conditions -  °F | °C
As of 9:15 AM on Thursday 18 Dec 2014 (Local Time) from KPNA Reporting Station
Clear Clear  
Wind Chill: -14°   Ceiling: Unl
Heat Index: -9°   Visibility: 10mi
Dew Point: -12°   Wind: 7mph
Humidity: 79%   Direction: 310°NW
Pressure: 30.09"   Gusts: NA
Location:  42.86°N, 110.07°W
Report Text: KPNA 181615Z AUTO 31006KT 10SM CLR M09/M12 A3009 RMK AO2
Loading
Personal Weather Stations






























Interactive Weather Map New forecast layout! Learn more

10-Day Weather Forecast

Advertisements
Track Severe Weather on mobile